Ana Sayfa
METAR-TAF:

METAR-TAF

Havaalanları :

Wiscasset Airport

Wiscasset, Maine, Amerika Birleşik Devletleri

Enlem: 43-57-49N, Boylam: 069-42-42W, yükseklik: 20 m

Güncel hava durumu gözlemi

Rapor saat 13:53 UTC de 31 dakika önce yapıldı.
Rüzgar değişken yönden 4 kt
Sıcaklık 1°C
Nem 55%
Basınç 1014 hPa
Görüş mesafesi: 16.1 km
10000 ft yükseklikte çok bulutlu

METAR: KIWI 301353Z AUTO VRB04KT 10SM OVC100 01/M07 A2994 RMK AO2 SLP140 T00061067

Saat: 10:24 (14:24 UTC)


TAF: eksik

4.000'den fazla havaalanı için hava durumu gözlemleri ve tahminleri (METAR ve TAF raporları).

Kullanılabilir istasyonlar harita üzerinde sarı ve kırmızı noktalarla gösterilir.

İstasyonun adını görmek için fareyi noktanın üzerinde gezdirin.

Sonrasında hava gözlem ve tahminlerini görmek için tıklayın.

Haritayı değiştirmek için: yaklaştırmak için siyah artı işaretli yeşil düğmeye ve uzaklaştırmak için de eksi işaretli düğmeye hızla tıklayın; bitişik haritalar için yeşil okları kullanın.


METAR-TAF: